Accueil
METAR-TAF:

METAR-TAF

Aéroports :

Accra, Ghana

Aéroport international de Kotoka

latitude: 05-36N, longitude: 000-10W, altitude: 68 m

Observation

Le bulletin a été fait il y a 1 heure et 13 minutes, à 04:00 UTC
Vent 5 kt de ouest/sud-ouest
Température 25°C
Humidité 94%
Pression 1012 hPa
Visibilité: 8000 m
Quelques nuages à une hauteur de 700 ft
Nuages épars à une hauteur de 1200 ft
pluie faible

METAR: DGAA 260400Z 25005KT 8000 -RA FEW007 SCT012 25/24 Q1012 NOSIG

Heure: 05:13 (05:13 UTC)


TAF: absent

Observations et prévisions météorologiques de plus de 4000 aéroports (messages METAR et TAF).

Les stations disponibles sont représentées par des disques jaunes et rouges sur la carte.

Passer la souris dessus pour voir le nom de la station.

Cliquer dessus pour voir les observations et prévisions météorologiques.

Pour changer de carte: cliquez sur les boutons verts avec une croix noire pour zoomer, sur le bouton vert avec un tiret pour effectuer un zoom arrière, ou sur les flèches vertes pour les cartes adjacentes.


METAR-TAF: